createdAt,value
2017-08-07T00:00:16.596Z,1.6
2017-08-07T00:01:19.352Z,1.6
2017-08-07T00:02:22.785Z,1.6
2017-08-07T00:03:25.883Z,1.5
2017-08-07T00:04:28.315Z,1.6
2017-08-07T00:05:31.407Z,1.6
2017-08-07T00:06:34.170Z,1.6
2017-08-07T00:07:36.584Z,1.5
2017-08-07T00:08:39.351Z,1.6
2017-08-07T00:09:42.117Z,1.7
2017-08-07T00:10:44.870Z,1.6
2017-08-07T00:11:47.627Z,1.6
2017-08-07T00:12:50.043Z,1.6
2017-08-07T00:13:52.785Z,1.5
2017-08-07T00:14:55.555Z,1.6
2017-08-07T00:15:57.960Z,1.6
2017-08-07T00:17:00.365Z,1.5
2017-08-07T00:18:03.465Z,1.6
2017-08-07T00:19:05.879Z,1.5
2017-08-07T00:20:08.292Z,1.7
2017-08-07T00:21:11.050Z,1.5
2017-08-07T00:22:13.466Z,1.5
2017-08-07T00:23:16.216Z,1.5
2017-08-07T00:24:18.647Z,1.5
2017-08-07T00:25:21.398Z,1.5
2017-08-07T00:26:23.803Z,1.6
2017-08-07T00:27:26.233Z,1.5
2017-08-07T00:28:28.645Z,1.7
2017-08-07T00:29:31.399Z,1.6
2017-08-07T00:30:33.820Z,1.6
2017-08-07T00:31:36.253Z,1.5
2017-08-07T00:32:39.346Z,1.6
2017-08-07T00:33:41.766Z,1.6
2017-08-07T00:34:44.188Z,1.5
2017-08-07T00:35:46.957Z,1.5
2017-08-07T00:36:49.372Z,1.7
2017-08-07T00:37:52.475Z,1.6
2017-08-07T00:38:55.227Z,1.6
2017-08-07T00:39:57.634Z,1.6
2017-08-07T00:41:00.057Z,1.6
2017-08-07T00:42:02.827Z,1.6
2017-08-07T00:43:05.247Z,1.7
2017-08-07T00:44:07.656Z,1.6
2017-08-07T00:45:10.092Z,1.6
2017-08-07T00:46:12.502Z,1.6
2017-08-07T00:47:14.916Z,1.6
2017-08-07T00:48:17.674Z,1.6
2017-08-07T00:49:20.441Z,1.5
2017-08-07T00:50:22.851Z,1.7
2017-08-07T00:51:25.272Z,1.5
2017-08-07T00:52:27.696Z,1.5
2017-08-07T00:53:30.445Z,1.7
2017-08-07T00:54:33.214Z,1.5
2017-08-07T00:55:35.633Z,1.5
2017-08-07T00:56:38.386Z,1.6
2017-08-07T00:57:41.162Z,1.6
2017-08-07T00:58:43.924Z,1.7
2017-08-07T00:59:46.685Z,1.7
2017-08-07T01:00:49.107Z,1.5
2017-08-07T01:01:51.522Z,1.6
2017-08-07T01:02:54.278Z,1.6
2017-08-07T01:03:56.690Z,1.7
2017-08-07T01:04:59.111Z,1.6
2017-08-07T01:06:01.876Z,1.7
2017-08-07T01:07:04.619Z,1.7
2017-08-07T01:08:07.364Z,1.7
2017-08-07T01:09:09.790Z,1.6
2017-08-07T01:10:12.560Z,1.6
2017-08-07T01:11:14.971Z,1.6
2017-08-07T01:12:17.386Z,1.6
2017-08-07T01:13:19.806Z,1.6
2017-08-07T01:14:22.230Z,1.6
2017-08-07T01:15:24.642Z,1.6
2017-08-07T01:16:27.055Z,1.7
2017-08-07T01:17:29.835Z,1.6
2017-08-07T01:18:32.589Z,1.5
2017-08-07T01:19:35.011Z,1.6
2017-08-07T01:20:37.767Z,1.6
2017-08-07T01:21:40.170Z,1.5
2017-08-07T01:22:42.935Z,1.5
2017-08-07T01:23:45.349Z,1.7
2017-08-07T01:24:47.766Z,1.6
2017-08-07T01:25:50.187Z,1.6
2017-08-07T01:26:52.596Z,1.6
2017-08-07T01:27:55.006Z,1.5
2017-08-07T01:28:57.437Z,1.6
2017-08-07T01:29:59.868Z,1.6
2017-08-07T01:31:02.625Z,1.6
2017-08-07T01:32:05.056Z,1.6
2017-08-07T01:33:07.473Z,1.6
2017-08-07T01:34:09.888Z,1.6
2017-08-07T01:35:12.304Z,1.6
2017-08-07T01:36:14.721Z,1.7
2017-08-07T01:37:17.135Z,1.6
2017-08-07T01:38:19.891Z,1.6
2017-08-07T01:39:23.015Z,1.5
2017-08-07T01:40:25.430Z,1.6
2017-08-07T01:41:27.865Z,1.5
2017-08-07T01:42:30.309Z,1.6
2017-08-07T01:43:32.717Z,1.6
2017-08-07T01:44:35.128Z,1.7
2017-08-07T01:45:37.891Z,1.6
2017-08-07T01:46:40.641Z,1.5
2017-08-07T01:47:43.069Z,1.5
2017-08-07T01:48:45.840Z,1.6
2017-08-07T01:49:48.254Z,1.5
2017-08-07T01:50:50.676Z,1.6
2017-08-07T01:51:53.091Z,1.7
2017-08-07T01:52:55.501Z,1.5
2017-08-07T01:53:58.591Z,1.6
2017-08-07T01:55:01.012Z,1.6
2017-08-07T01:56:03.422Z,1.5
2017-08-07T01:57:05.845Z,1.5
2017-08-07T01:58:08.622Z,1.6
2017-08-07T01:59:11.036Z,1.6
2017-08-07T02:00:13.822Z,1.5
2017-08-07T02:01:16.239Z,1.5
2017-08-07T02:02:18.657Z,1.5
2017-08-07T02:03:21.405Z,1.5
2017-08-07T02:04:24.166Z,1.5
2017-08-07T02:05:26.580Z,1.5
2017-08-07T02:06:29.337Z,1.6
2017-08-07T02:07:32.456Z,1.7
2017-08-07T02:08:35.211Z,1.5
2017-08-07T02:09:37.615Z,1.6
2017-08-07T02:10:40.046Z,1.5
2017-08-07T02:11:42.459Z,1.6
2017-08-07T02:12:44.866Z,1.5
2017-08-07T02:13:47.972Z,1.5
2017-08-07T02:14:50.378Z,1.5
2017-08-07T02:15:52.799Z,1.6
2017-08-07T02:16:55.235Z,1.5
2017-08-07T02:17:57.647Z,1.6
2017-08-07T02:19:00.077Z,1.5
2017-08-07T02:20:02.495Z,1.5
2017-08-07T02:21:05.587Z,1.5
2017-08-07T02:22:08.346Z,1.5
2017-08-07T02:23:10.765Z,1.5
2017-08-07T02:24:13.187Z,1.5
2017-08-07T02:25:16.610Z,1.5
2017-08-07T02:26:19.368Z,1.5
2017-08-07T02:27:21.779Z,1.6
2017-08-07T02:28:24.197Z,1.6
2017-08-07T02:29:26.956Z,1.5
2017-08-07T02:30:29.367Z,1.6
2017-08-07T02:31:32.123Z,1.5
2017-08-07T02:32:34.537Z,1.5
2017-08-07T02:33:36.973Z,1.5
2017-08-07T02:34:39.389Z,1.6
2017-08-07T02:35:42.821Z,1.5
2017-08-07T02:36:45.238Z,1.5
2017-08-07T02:37:48.338Z,1.5
2017-08-07T02:38:50.769Z,1.4
2017-08-07T02:39:53.508Z,1.4
2017-08-07T02:40:55.930Z,1.5
2017-08-07T02:41:59.032Z,1.4
2017-08-07T02:43:01.454Z,1.5
2017-08-07T02:44:04.546Z,1.6
2017-08-07T02:45:07.638Z,1.4
2017-08-07T02:46:10.049Z,1.4
2017-08-07T02:47:12.475Z,1.5
2017-08-07T02:48:15.561Z,1.6
2017-08-07T02:49:18.351Z,1.5
2017-08-07T02:50:21.091Z,1.4
2017-08-07T02:51:23.844Z,1.4
2017-08-07T02:52:26.622Z,1.4
2017-08-07T02:53:29.378Z,1.5
2017-08-07T02:54:32.129Z,1.5
2017-08-07T02:55:34.563Z,1.4
2017-08-07T02:56:36.979Z,1.5
2017-08-07T02:57:39.389Z,1.5
2017-08-07T02:58:41.809Z,1.4
2017-08-07T02:59:44.212Z,1.5
2017-08-07T03:00:46.628Z,1.5
2017-08-07T03:01:49.406Z,1.4
2017-08-07T03:02:52.181Z,1.5
2017-08-07T03:03:54.590Z,1.4
2017-08-07T03:04:57.347Z,1.5
2017-08-07T03:05:59.774Z,1.4
2017-08-07T03:07:02.873Z,1.5
2017-08-07T03:08:05.630Z,1.6
2017-08-07T03:09:08.397Z,1.4
2017-08-07T03:10:11.162Z,1.4
2017-08-07T03:11:13.926Z,1.4
2017-08-07T03:12:16.679Z,1.5
2017-08-07T03:13:19.440Z,1.5
2017-08-07T03:14:22.196Z,1.4
2017-08-07T03:15:24.610Z,1.4
2017-08-07T03:16:27.371Z,1.4
2017-08-07T03:17:30.131Z,1.4
2017-08-07T03:18:32.540Z,1.4
2017-08-07T03:19:34.952Z,1.4
2017-08-07T03:20:38.061Z,1.4
2017-08-07T03:21:40.839Z,1.5
2017-08-07T03:22:43.249Z,1.4
2017-08-07T03:23:45.682Z,1.4
2017-08-07T03:24:48.099Z,1.5
2017-08-07T03:25:50.517Z,1.5
2017-08-07T03:26:53.264Z,1.4
2017-08-07T03:27:56.361Z,1.4
2017-08-07T03:28:58.788Z,1.5
2017-08-07T03:30:01.553Z,1.5
2017-08-07T03:31:03.982Z,1.5
2017-08-07T03:32:06.401Z,1.4
2017-08-07T03:33:08.809Z,1.5
2017-08-07T03:34:11.220Z,1.4
2017-08-07T03:35:13.963Z,1.5
2017-08-07T03:36:16.724Z,1.4
2017-08-07T03:37:19.503Z,1.5
2017-08-07T03:38:22.251Z,1.4
2017-08-07T03:39:24.656Z,1.5
2017-08-07T03:40:27.079Z,1.4
2017-08-07T03:41:29.890Z,1.4
2017-08-07T03:42:32.643Z,1.4
2017-08-07T03:43:35.069Z,1.5
2017-08-07T03:44:37.485Z,1.5
2017-08-07T03:45:40.235Z,1.4
2017-08-07T03:46:42.662Z,1.5
2017-08-07T03:47:45.079Z,1.5
2017-08-07T03:48:47.492Z,1.5
2017-08-07T03:49:49.899Z,1.4
2017-08-07T03:50:53.000Z,1.5
2017-08-07T03:51:55.410Z,1.5
2017-08-07T03:52:57.836Z,1.5
2017-08-07T03:54:00.573Z,1.5
2017-08-07T03:55:03.327Z,1.5
2017-08-07T03:56:05.740Z,1.5
2017-08-07T03:57:08.164Z,1.5
2017-08-07T03:58:11.614Z,1.5
2017-08-07T03:59:14.369Z,1.6
2017-08-07T04:00:16.784Z,1.6
2017-08-07T04:01:19.206Z,1.4
2017-08-07T04:02:21.619Z,1.5
2017-08-07T04:03:24.022Z,1.4
2017-08-07T04:04:26.792Z,1.4
2017-08-07T04:05:29.550Z,1.5
2017-08-07T04:06:32.298Z,1.5
2017-08-07T04:07:34.812Z,1.5
2017-08-07T04:08:37.387Z,1.5
2017-08-07T04:09:40.213Z,1.6
2017-08-07T04:10:43.111Z,1.5
2017-08-07T04:11:45.956Z,1.6
2017-08-07T04:12:48.811Z,1.5
2017-08-07T04:13:51.665Z,1.6
2017-08-07T04:14:54.271Z,1.6
2017-08-07T04:15:57.115Z,1.5
2017-08-07T04:16:59.953Z,1.5
2017-08-07T04:18:02.491Z,1.6
2017-08-07T04:19:05.691Z,1.5
2017-08-07T04:20:08.206Z,1.5
2017-08-07T04:21:10.729Z,1.5
2017-08-07T04:22:13.609Z,1.6
2017-08-07T04:23:16.794Z,1.6
2017-08-07T04:24:19.333Z,1.6
2017-08-07T04:25:22.521Z,1.8
2017-08-07T04:26:25.736Z,1.6
2017-08-07T04:27:28.264Z,1.7
2017-08-07T04:28:31.117Z,1.8
2017-08-07T04:29:33.713Z,1.6
2017-08-07T04:30:36.228Z,1.6
2017-08-07T04:31:39.088Z,1.5
2017-08-07T04:32:41.969Z,1.7
2017-08-07T04:33:44.507Z,1.6
2017-08-07T04:34:47.015Z,1.6
2017-08-07T04:35:49.874Z,1.6
2017-08-07T04:36:52.383Z,1.5
2017-08-07T04:37:54.898Z,1.6
2017-08-07T04:38:57.422Z,1.5
2017-08-07T04:39:59.918Z,1.7
2017-08-07T04:41:02.438Z,1.6
2017-08-07T04:42:06.005Z,1.6
2017-08-07T04:43:09.214Z,1.6
2017-08-07T04:44:12.750Z,1.7
2017-08-07T04:45:15.589Z,1.5
2017-08-07T04:46:18.122Z,1.5
2017-08-07T04:47:21.655Z,1.5
2017-08-07T04:48:24.154Z,1.5
2017-08-07T04:49:26.662Z,1.6
2017-08-07T04:50:29.163Z,1.5
2017-08-07T04:51:32.026Z,1.6
2017-08-07T04:52:34.538Z,1.6
2017-08-07T04:53:37.395Z,1.5
2017-08-07T04:54:39.925Z,1.5
2017-08-07T04:55:42.784Z,1.5
2017-08-07T04:56:45.286Z,1.5
2017-08-07T04:57:48.151Z,1.6
2017-08-07T04:58:50.679Z,1.5
2017-08-07T04:59:53.535Z,1.7
2017-08-07T05:00:56.400Z,1.6
2017-08-07T05:01:58.915Z,1.6
2017-08-07T05:03:01.788Z,1.6
2017-08-07T05:04:04.297Z,1.7
2017-08-07T05:05:07.188Z,1.6
2017-08-07T05:06:09.701Z,1.5
2017-08-07T05:07:12.883Z,1.7
2017-08-07T05:08:15.390Z,1.5
2017-08-07T05:09:17.879Z,1.7
2017-08-07T05:10:20.413Z,1.6
2017-08-07T05:11:22.921Z,1.5
2017-08-07T05:12:25.426Z,1.6
2017-08-07T05:13:27.940Z,1.5
2017-08-07T05:14:30.480Z,1.6
2017-08-07T05:15:32.984Z,1.5
2017-08-07T05:16:36.185Z,1.6
2017-08-07T05:17:39.033Z,1.7
2017-08-07T05:18:41.542Z,1.6
2017-08-07T05:19:44.409Z,1.6
2017-08-07T05:20:46.905Z,1.8
2017-08-07T05:21:49.770Z,1.7
2017-08-07T05:22:52.286Z,1.6
2017-08-07T05:23:54.777Z,1.6
2017-08-07T05:24:58.323Z,1.8
2017-08-07T05:26:00.830Z,1.6
2017-08-07T05:27:03.319Z,1.7
2017-08-07T05:28:06.515Z,1.7
2017-08-07T05:29:09.018Z,1.7
2017-08-07T05:30:11.854Z,1.7
2017-08-07T05:31:14.354Z,1.7
2017-08-07T05:32:17.229Z,1.8
2017-08-07T05:33:19.724Z,1.9
2017-08-07T05:34:22.244Z,1.7
2017-08-07T05:35:24.748Z,1.7
2017-08-07T05:36:27.248Z,1.7
2017-08-07T05:37:30.104Z,1.8
2017-08-07T05:38:32.614Z,1.8
2017-08-07T05:39:35.126Z,1.7
2017-08-07T05:40:37.631Z,1.8
2017-08-07T05:41:40.132Z,1.7
2017-08-07T05:42:42.973Z,1.9
2017-08-07T05:43:45.490Z,1.8
2017-08-07T05:44:47.994Z,1.9
2017-08-07T05:45:50.512Z,2
2017-08-07T05:46:53.721Z,1.8
2017-08-07T05:47:56.254Z,1.8
2017-08-07T05:48:59.104Z,1.8
2017-08-07T05:50:02.624Z,1.8
2017-08-07T05:51:05.157Z,1.9
2017-08-07T05:52:07.665Z,1.8
2017-08-07T05:53:10.167Z,1.8
2017-08-07T05:54:12.669Z,1.8
2017-08-07T05:55:15.175Z,1.9
2017-08-07T05:56:18.036Z,2
2017-08-07T05:57:20.884Z,2
2017-08-07T05:58:23.387Z,1.8
2017-08-07T05:59:26.580Z,2.1
2017-08-07T06:00:29.828Z,2
2017-08-07T06:01:32.325Z,1.9
2017-08-07T06:02:34.834Z,2
2017-08-07T06:03:37.371Z,1.9
2017-08-07T06:04:40.233Z,2
2017-08-07T06:05:42.718Z,2
2017-08-07T06:06:45.236Z,2
2017-08-07T06:07:47.763Z,2
2017-08-07T06:08:50.610Z,2
2017-08-07T06:09:53.134Z,2
2017-08-07T06:10:55.661Z,2
2017-08-07T06:11:58.507Z,2
2017-08-07T06:13:01.046Z,1.9
2017-08-07T06:14:04.258Z,2
2017-08-07T06:15:07.428Z,2.1
2017-08-07T06:16:09.973Z,2.1
2017-08-07T06:17:12.827Z,2
2017-08-07T06:18:15.387Z,2
2017-08-07T06:19:18.569Z,2
2017-08-07T06:20:21.758Z,2.1
2017-08-07T06:21:24.946Z,2
2017-08-07T06:22:27.477Z,2.1
2017-08-07T06:23:30.333Z,2
2017-08-07T06:24:32.883Z,2
2017-08-07T06:25:35.389Z,2
2017-08-07T06:26:38.238Z,2
2017-08-07T06:27:41.094Z,2
2017-08-07T06:28:44.293Z,2
2017-08-07T06:29:47.143Z,2
2017-08-07T06:30:49.662Z,2
2017-08-07T06:31:52.493Z,2.1
2017-08-07T06:32:55.351Z,2
2017-08-07T06:33:57.880Z,2.1
2017-08-07T06:35:00.396Z,2
2017-08-07T06:36:02.911Z,2.1
2017-08-07T06:37:05.413Z,2.1
2017-08-07T06:38:07.909Z,2.1
2017-08-07T06:39:10.466Z,2.1
2017-08-07T06:40:12.980Z,2
2017-08-07T06:41:15.490Z,2
2017-08-07T06:42:18.359Z,2.1
2017-08-07T06:43:21.214Z,2.1
2017-08-07T06:44:23.714Z,2.1
2017-08-07T06:45:26.214Z,2.1
2017-08-07T06:46:29.064Z,2.1
2017-08-07T06:47:31.564Z,2.1
2017-08-07T06:48:34.083Z,2.1
2017-08-07T06:49:36.587Z,2.1
2017-08-07T06:50:39.081Z,2.1
2017-08-07T06:51:42.607Z,2.1
2017-08-07T06:52:45.485Z,2.2
2017-08-07T06:53:48.013Z,2.2
2017-08-07T06:54:50.528Z,2.1
2017-08-07T06:55:53.735Z,2.2
2017-08-07T06:56:56.250Z,2.2
2017-08-07T06:57:59.117Z,2.2
2017-08-07T06:59:02.327Z,2.3
2017-08-07T07:00:05.187Z,2.3
2017-08-07T07:01:07.701Z,2.2
2017-08-07T07:02:10.228Z,2.3
2017-08-07T07:03:12.723Z,2.3
2017-08-07T07:04:15.235Z,2.3
2017-08-07T07:05:17.767Z,2.2
2017-08-07T07:06:20.621Z,2.3
2017-08-07T07:07:23.148Z,2.3
2017-08-07T07:08:25.994Z,2.3
2017-08-07T07:09:28.519Z,2.2
2017-08-07T07:10:31.036Z,2.3
2017-08-07T07:11:33.543Z,2.3
2017-08-07T07:12:36.400Z,2.3
2017-08-07T07:13:39.281Z,2.3
2017-08-07T07:14:41.793Z,2.4
2017-08-07T07:15:44.300Z,2.4
2017-08-07T07:16:47.520Z,2.4
2017-08-07T07:17:50.026Z,2.3
2017-08-07T07:18:52.877Z,2.3
2017-08-07T07:19:55.736Z,2.3
2017-08-07T07:20:58.273Z,2.4
2017-08-07T07:22:00.799Z,2.3
2017-08-07T07:23:03.672Z,2.4
2017-08-07T07:24:06.521Z,2.4
2017-08-07T07:25:09.384Z,2.3
2017-08-07T07:26:11.901Z,2.4
2017-08-07T07:27:14.752Z,2.4
2017-08-07T07:28:17.629Z,2.5
2017-08-07T07:29:20.142Z,2.5
2017-08-07T07:30:23.333Z,2.5
2017-08-07T07:31:25.832Z,2.4
2017-08-07T07:32:28.732Z,2.5
2017-08-07T07:33:31.258Z,2.5
2017-08-07T07:34:34.123Z,2.5
2017-08-07T07:35:36.635Z,2.5
2017-08-07T07:36:39.500Z,2.5
2017-08-07T07:37:42.013Z,2.5
2017-08-07T07:38:44.551Z,2.5
2017-08-07T07:39:47.049Z,2.5
2017-08-07T07:40:49.570Z,2.5
2017-08-07T07:41:52.078Z,2.5
2017-08-07T07:42:54.594Z,2.4
2017-08-07T07:43:57.787Z,2.6
2017-08-07T07:45:00.664Z,2.5
2017-08-07T07:46:03.509Z,2.5
2017-08-07T07:47:06.030Z,2.6
2017-08-07T07:48:09.566Z,2.5
2017-08-07T07:49:12.087Z,2.6
2017-08-07T07:50:14.952Z,2.6
2017-08-07T07:51:17.481Z,2.5
2017-08-07T07:52:20.363Z,2.5
2017-08-07T07:53:22.897Z,2.5
2017-08-07T07:54:25.451Z,2.6
2017-08-07T07:55:28.638Z,2.6
2017-08-07T07:56:31.140Z,2.6
2017-08-07T07:57:33.678Z,2.7
2017-08-07T07:58:36.869Z,2.6
2017-08-07T07:59:39.717Z,2.6
2017-08-07T08:00:42.601Z,2.7
2017-08-07T08:01:45.122Z,2.7
2017-08-07T08:02:47.627Z,2.7
2017-08-07T08:03:50.144Z,2.7
2017-08-07T08:04:53.018Z,2.6
2017-08-07T08:05:56.232Z,2.6
2017-08-07T08:06:59.089Z,2.7
2017-08-07T08:08:01.606Z,2.7
2017-08-07T08:09:04.129Z,2.7
2017-08-07T08:10:07.679Z,2.7
2017-08-07T08:11:10.532Z,2.7
2017-08-07T08:12:13.028Z,2.8
2017-08-07T08:13:15.560Z,2.7
2017-08-07T08:14:18.088Z,2.7
2017-08-07T08:15:20.955Z,2.8
2017-08-07T08:16:23.469Z,2.7
2017-08-07T08:17:26.004Z,2.7
2017-08-07T08:18:28.861Z,2.8
2017-08-07T08:19:31.397Z,2.8
2017-08-07T08:20:33.925Z,2.8
2017-08-07T08:21:37.439Z,2.8
2017-08-07T08:22:39.953Z,2.9
2017-08-07T08:23:42.486Z,2.8
2017-08-07T08:24:45.319Z,2.9
2017-08-07T08:25:48.878Z,2.8
2017-08-07T08:26:51.736Z,2.9
2017-08-07T08:27:54.603Z,2.9
2017-08-07T08:28:57.467Z,2.9
2017-08-07T08:30:00.007Z,2.9
2017-08-07T08:31:02.526Z,2.8
2017-08-07T08:32:05.069Z,2.9
2017-08-07T08:33:07.581Z,2.9
2017-08-07T08:34:10.090Z,2.9
2017-08-07T08:35:13.284Z,2.9
2017-08-07T08:36:16.155Z,2.9
2017-08-07T08:37:19.006Z,2.9
2017-08-07T08:38:21.878Z,2.9
2017-08-07T08:39:24.380Z,2.9
2017-08-07T08:40:26.902Z,2.9
2017-08-07T08:41:29.431Z,3
2017-08-07T08:42:31.947Z,2.9
2017-08-07T08:43:34.474Z,2.9
2017-08-07T08:44:37.347Z,2.9
2017-08-07T08:45:40.198Z,2.9
2017-08-07T08:46:42.740Z,2.9
2017-08-07T08:47:45.605Z,3
2017-08-07T08:48:48.457Z,2.9
2017-08-07T08:49:50.973Z,3
2017-08-07T08:50:53.855Z,3
2017-08-07T08:51:56.356Z,3
2017-08-07T08:52:59.255Z,3
2017-08-07T08:54:01.764Z,2.8
2017-08-07T08:55:04.631Z,3
2017-08-07T08:56:07.830Z,3
2017-08-07T08:57:10.360Z,3
2017-08-07T08:58:12.869Z,3
2017-08-07T08:59:15.733Z,3
2017-08-07T09:00:19.274Z,3
2017-08-07T09:01:22.492Z,2.9
2017-08-07T09:02:24.989Z,3
2017-08-07T09:03:27.519Z,3
2017-08-07T09:04:30.735Z,3
2017-08-07T09:05:33.264Z,3.1
2017-08-07T09:06:35.805Z,3.1
2017-08-07T09:07:39.021Z,3.1
2017-08-07T09:08:41.910Z,3.1
2017-08-07T09:09:44.792Z,3
2017-08-07T09:10:47.322Z,3.1
2017-08-07T09:11:50.518Z,3.1
2017-08-07T09:12:53.047Z,3
2017-08-07T09:13:55.571Z,3.1
2017-08-07T09:14:58.440Z,3.2
2017-08-07T09:16:01.969Z,3.1
2017-08-07T09:17:05.528Z,3.2
2017-08-07T09:18:08.379Z,3.3
2017-08-07T09:19:11.259Z,3.2
2017-08-07T09:20:13.765Z,3.2
2017-08-07T09:21:16.285Z,3.2
2017-08-07T09:22:18.797Z,3.2
2017-08-07T09:23:21.652Z,3.2
2017-08-07T09:24:24.537Z,3.2
2017-08-07T09:25:27.091Z,3.3
2017-08-07T09:26:29.615Z,3.3
2017-08-07T09:27:32.150Z,3.4
2017-08-07T09:28:34.674Z,3.3
2017-08-07T09:29:37.189Z,3.4
2017-08-07T09:30:40.033Z,3.4
2017-08-07T09:31:42.903Z,3.4
2017-08-07T09:32:45.433Z,3.4
2017-08-07T09:33:48.297Z,3.4
2017-08-07T09:34:51.167Z,3.4
2017-08-07T09:35:53.690Z,3.4
2017-08-07T09:36:56.208Z,3.5
2017-08-07T09:37:59.081Z,3.4
2017-08-07T09:39:01.949Z,3.3
2017-08-07T09:40:05.496Z,3.4
2017-08-07T09:41:08.012Z,3.5
2017-08-07T09:42:10.544Z,3.5
2017-08-07T09:43:13.076Z,3.5
2017-08-07T09:44:15.624Z,3.5
2017-08-07T09:45:18.824Z,3.5
2017-08-07T09:46:21.698Z,3.4
2017-08-07T09:47:24.214Z,3.5
2017-08-07T09:48:26.736Z,3.5
2017-08-07T09:49:29.604Z,3.5
2017-08-07T09:50:32.472Z,3.4
2017-08-07T09:51:34.999Z,3.4
2017-08-07T09:52:37.902Z,3.5
2017-08-07T09:53:40.754Z,3.5
2017-08-07T09:54:43.605Z,3.4
2017-08-07T09:55:46.134Z,3.5
2017-08-07T09:56:49.347Z,3.5
2017-08-07T09:57:52.557Z,3.4
2017-08-07T09:58:55.438Z,3.4
2017-08-07T09:59:58.303Z,3.3
2017-08-07T10:01:00.827Z,3.4
2017-08-07T10:02:04.017Z,3.4
2017-08-07T10:03:06.880Z,3.4
2017-08-07T10:04:09.407Z,3.3
2017-08-07T10:05:11.928Z,3.3
2017-08-07T10:06:14.459Z,3.4
2017-08-07T10:07:16.981Z,3.4
2017-08-07T10:08:19.486Z,3.4
2017-08-07T10:09:22.371Z,3.4
2017-08-07T10:10:25.245Z,3.4
2017-08-07T10:11:27.764Z,3.5
2017-08-07T10:12:30.290Z,3.5
2017-08-07T10:13:33.158Z,3.5
2017-08-07T10:14:36.021Z,3.5
2017-08-07T10:15:39.224Z,3.5
2017-08-07T10:16:42.104Z,3.5
2017-08-07T10:17:44.629Z,3.5
2017-08-07T10:18:47.147Z,3.4
2017-08-07T10:19:50.026Z,3.4
2017-08-07T10:20:53.226Z,3.5
2017-08-07T10:21:56.079Z,3.4
2017-08-07T10:22:58.591Z,3.5
2017-08-07T10:24:01.120Z,3.4
2017-08-07T10:25:03.973Z,3.5
2017-08-07T10:26:06.839Z,3.4
2017-08-07T10:27:09.702Z,3.4
2017-08-07T10:28:12.235Z,3.3
2017-08-07T10:29:14.758Z,3.4
2017-08-07T10:30:17.956Z,3.3
2017-08-07T10:31:20.487Z,3.4
2017-08-07T10:32:23.012Z,3.4
2017-08-07T10:33:25.546Z,3.4
2017-08-07T10:34:28.425Z,3.4
2017-08-07T10:35:31.270Z,3.4
2017-08-07T10:36:33.802Z,3.5
2017-08-07T10:37:36.332Z,3.5
2017-08-07T10:38:39.198Z,3.4
2017-08-07T10:39:41.722Z,3.5
2017-08-07T10:40:44.601Z,3.4
2017-08-07T10:41:47.117Z,3.4
2017-08-07T10:42:49.656Z,3.5
2017-08-07T10:43:52.507Z,3.5
2017-08-07T10:44:55.053Z,3.6
2017-08-07T10:45:57.563Z,3.6
2017-08-07T10:47:00.087Z,3.6
2017-08-07T10:48:02.954Z,3.6
2017-08-07T10:49:05.481Z,3.6
2017-08-07T10:50:08.019Z,3.7
2017-08-07T10:51:10.892Z,3.7
2017-08-07T10:52:13.415Z,3.7
2017-08-07T10:53:16.287Z,3.7
2017-08-07T10:54:18.816Z,3.7
2017-08-07T10:55:21.336Z,3.8
2017-08-07T10:56:23.868Z,3.7
2017-08-07T10:57:26.423Z,3.8
2017-08-07T10:58:29.611Z,3.7
2017-08-07T10:59:32.820Z,3.8
2017-08-07T11:00:35.687Z,3.8
2017-08-07T11:01:38.218Z,3.8
2017-08-07T11:02:40.757Z,3.8
2017-08-07T11:03:43.277Z,3.8
2017-08-07T11:04:45.793Z,3.8
2017-08-07T11:05:48.309Z,3.8
2017-08-07T11:06:50.838Z,3.9
2017-08-07T11:07:53.705Z,3.8
2017-08-07T11:08:56.229Z,3.8
2017-08-07T11:09:59.770Z,3.8
2017-08-07T11:11:02.666Z,3.8
2017-08-07T11:12:05.534Z,3.9
2017-08-07T11:13:08.411Z,3.9
2017-08-07T11:14:10.939Z,3.8
2017-08-07T11:15:13.468Z,3.9
2017-08-07T11:16:16.334Z,3.8
2017-08-07T11:17:18.854Z,3.8
2017-08-07T11:18:21.366Z,3.9
2017-08-07T11:19:24.600Z,3.9
2017-08-07T11:20:27.118Z,3.9
2017-08-07T11:21:30.321Z,4
2017-08-07T11:22:32.835Z,4
2017-08-07T11:23:35.357Z,4
2017-08-07T11:24:37.883Z,4
2017-08-07T11:25:40.420Z,4.2
2017-08-07T11:26:43.274Z,4.1
2017-08-07T11:27:45.806Z,4
2017-08-07T11:28:48.665Z,4.1
2017-08-07T11:29:51.543Z,4.1
2017-08-07T11:30:54.052Z,4.1
2017-08-07T11:31:56.581Z,4.2
2017-08-07T11:32:59.117Z,4.1
2017-08-07T11:34:01.637Z,4.1
2017-08-07T11:35:04.840Z,4.1
2017-08-07T11:36:07.370Z,4.2
2017-08-07T11:37:10.256Z,4.1
2017-08-07T11:38:13.825Z,4.1
2017-08-07T11:39:16.362Z,4.2
2017-08-07T11:40:19.225Z,4.2
2017-08-07T11:41:22.807Z,4.1
2017-08-07T11:42:25.350Z,4.3
2017-08-07T11:43:28.578Z,4.3
2017-08-07T11:44:31.466Z,4.2
2017-08-07T11:45:33.988Z,4.2
2017-08-07T11:46:36.866Z,4.2
2017-08-07T11:47:39.390Z,4.3
2017-08-07T11:48:41.916Z,4.3
2017-08-07T11:49:44.434Z,4.3
2017-08-07T11:50:47.315Z,4.3
2017-08-07T11:51:50.561Z,4.4
2017-08-07T11:52:53.087Z,4.3
2017-08-07T11:53:55.617Z,4.4
2017-08-07T11:54:58.137Z,4.3
2017-08-07T11:56:01.032Z,4.4
2017-08-07T11:57:03.588Z,4.2
2017-08-07T11:58:06.452Z,4.3
2017-08-07T11:59:08.976Z,4.3
2017-08-07T12:00:11.511Z,4.3
2017-08-07T12:01:14.044Z,4.3
2017-08-07T12:02:16.591Z,4.3
2017-08-07T12:03:19.801Z,4.3
2017-08-07T12:04:22.337Z,4.3
2017-08-07T12:05:24.853Z,4.3
2017-08-07T12:06:27.739Z,4.2
2017-08-07T12:07:30.303Z,4.2
2017-08-07T12:08:33.156Z,4.2
2017-08-07T12:09:35.688Z,4.1
2017-08-07T12:10:38.223Z,4.2
2017-08-07T12:11:41.776Z,4.1
2017-08-07T12:12:44.643Z,4.2
2017-08-07T12:13:47.198Z,4.2
2017-08-07T12:14:50.063Z,4.2
2017-08-07T12:15:52.627Z,4.2
2017-08-07T12:16:55.527Z,4.2
2017-08-07T12:17:58.063Z,4.2
2017-08-07T12:19:00.600Z,4.2
2017-08-07T12:20:03.496Z,4.2
2017-08-07T12:21:06.399Z,4.2
2017-08-07T12:22:08.921Z,4.2
2017-08-07T12:23:11.516Z,4.2
2017-08-07T12:24:14.041Z,4.2
2017-08-07T12:25:17.591Z,4.2
2017-08-07T12:26:20.489Z,4.3
2017-08-07T12:27:23.392Z,4.3
2017-08-07T12:28:25.931Z,4.2
2017-08-07T12:29:28.803Z,4.3
2017-08-07T12:30:31.337Z,4.3
2017-08-07T12:31:33.882Z,4.3
2017-08-07T12:32:36.732Z,4.2
2017-08-07T12:33:39.261Z,4.4
2017-08-07T12:34:42.126Z,4.4
2017-08-07T12:35:45.313Z,4.3
2017-08-07T12:36:48.183Z,4.4
2017-08-07T12:37:50.723Z,4.4
2017-08-07T12:38:53.598Z,4.3
2017-08-07T12:39:56.816Z,4.3
2017-08-07T12:40:59.362Z,4.4
2017-08-07T12:42:02.223Z,4.4
2017-08-07T12:43:04.762Z,4.3
2017-08-07T12:44:07.289Z,4.3
2017-08-07T12:45:10.241Z,4.4
2017-08-07T12:46:13.126Z,4.4
2017-08-07T12:47:16.006Z,4.3
2017-08-07T12:48:18.544Z,4.4
2017-08-07T12:49:21.113Z,4.3
2017-08-07T12:50:23.995Z,4.4
2017-08-07T12:51:26.524Z,4.4
2017-08-07T12:52:29.050Z,4.3
2017-08-07T12:53:31.597Z,4.3
2017-08-07T12:54:34.458Z,4.3
2017-08-07T12:55:36.994Z,4.3
2017-08-07T12:56:39.520Z,4.3
2017-08-07T12:57:42.065Z,4.4
2017-08-07T12:58:44.612Z,4.4
2017-08-07T12:59:47.160Z,4.4
2017-08-07T13:00:50.040Z,4.4
2017-08-07T13:01:52.598Z,4.4
2017-08-07T13:02:55.806Z,4.4
2017-08-07T13:03:59.008Z,4.4
2017-08-07T13:05:01.894Z,4.4
2017-08-07T13:06:04.779Z,4.4
2017-08-07T13:07:07.321Z,4.3
2017-08-07T13:08:10.203Z,4.3
2017-08-07T13:09:12.747Z,4.3
2017-08-07T13:10:15.270Z,4.2
2017-08-07T13:11:17.822Z,4.3
2017-08-07T13:12:20.344Z,4.3
2017-08-07T13:13:23.220Z,4.3
2017-08-07T13:14:26.450Z,4.3
2017-08-07T13:15:28.985Z,4.4
2017-08-07T13:16:31.550Z,4.3
2017-08-07T13:17:35.111Z,4.4
2017-08-07T13:18:37.978Z,4.4
2017-08-07T13:19:40.522Z,4.4
2017-08-07T13:20:43.083Z,4.4
2017-08-07T13:21:45.597Z,4.3
2017-08-07T13:22:48.842Z,4.4
2017-08-07T13:23:51.732Z,4.4
2017-08-07T13:24:54.264Z,4.4
2017-08-07T13:25:56.802Z,4.3
2017-08-07T13:26:59.353Z,4.4
2017-08-07T13:28:02.210Z,4.4
2017-08-07T13:29:04.753Z,4.4
2017-08-07T13:30:07.734Z,4.5
2017-08-07T13:31:10.273Z,4.4
2017-08-07T13:32:12.830Z,4.4
2017-08-07T13:33:15.359Z,4.5
2017-08-07T13:34:18.564Z,4.4
2017-08-07T13:35:21.088Z,4.4
2017-08-07T13:36:23.960Z,4.4
2017-08-07T13:37:26.478Z,4.4
2017-08-07T13:38:29.012Z,4.4
2017-08-07T13:39:31.617Z,4.4
2017-08-07T13:40:34.152Z,4.4
2017-08-07T13:41:37.102Z,4.4
2017-08-07T13:42:40.313Z,4.4
2017-08-07T13:43:42.877Z,4.4
2017-08-07T13:44:45.411Z,4.4
2017-08-07T13:45:48.292Z,4.4
2017-08-07T13:46:51.181Z,4.4
2017-08-07T13:47:53.724Z,4.4
2017-08-07T13:48:56.251Z,4.4
2017-08-07T13:49:58.817Z,4.4
2017-08-07T13:51:02.393Z,4.4
2017-08-07T13:52:04.924Z,4.4
2017-08-07T13:53:07.764Z,4.3
2017-08-07T13:54:10.623Z,4.3
2017-08-07T13:55:13.845Z,4.3
2017-08-07T13:56:16.369Z,4.3
2017-08-07T13:57:19.239Z,4.4
2017-08-07T13:58:22.145Z,4.3
2017-08-07T13:59:24.684Z,4.1
2017-08-07T14:00:27.559Z,4.2
2017-08-07T14:01:30.089Z,4.2
2017-08-07T14:02:32.657Z,4.2
2017-08-07T14:03:35.846Z,4.1
2017-08-07T14:04:38.723Z,4.1
2017-08-07T14:05:41.582Z,4.2
2017-08-07T14:06:44.114Z,4.1
2017-08-07T14:07:46.650Z,4.1
2017-08-07T14:08:49.176Z,4.1
2017-08-07T14:09:52.072Z,4.1
2017-08-07T14:10:54.962Z,4.1
2017-08-07T14:11:57.490Z,4.1
2017-08-07T14:13:00.024Z,4.2
2017-08-07T14:14:02.894Z,4.2
2017-08-07T14:15:05.412Z,4.2
2017-08-07T14:16:07.964Z,4.2
2017-08-07T14:17:11.197Z,4.2
2017-08-07T14:18:13.717Z,4.1
2017-08-07T14:19:16.294Z,4.2
2017-08-07T14:20:19.199Z,4.1
2017-08-07T14:21:21.737Z,4.2
2017-08-07T14:22:24.283Z,4.2
2017-08-07T14:23:26.806Z,4.2
2017-08-07T14:24:29.683Z,4.2
2017-08-07T14:25:32.210Z,4.2
2017-08-07T14:26:35.093Z,4.1